Terminal Aerodrome Forecast
Issued by NWS Omaha/Valley, NE

Home | Current Version | Previous Version | Graphics & Text | Print | Product List | Glossary On
Versions: 1 2 3 4 5 6 7 8 9 10 11 12 13 14 15 16 17
000
FTUS43 KOAX 172320
TAFOFK
TAF
KOFK 172320Z 1800/1824 15005KT P6SM FEW050 BKN100
     FM180400 15006KT P6SM SCT100
     FM181200 15010KT P6SM BKN100
     FM181500 17016G25KT P6SM FEW040 SCT100=

USA.gov is the U.S. government's official web portal to all federal, state and local government web resources and services.